sensor_id;sensor_type;location;lat;lon;timestamp;P1;durP1;ratioP1;P2;durP2;ratioP2
20669;SDS011;10494;50.868;4.180;2023-08-06T00:01:50;11.43;;;3.40;;
20669;SDS011;10494;50.868;4.180;2023-08-06T00:04:16;9.90;;;3.53;;
20669;SDS011;10494;50.868;4.180;2023-08-06T00:06:41;5.88;;;3.03;;
20669;SDS011;10494;50.868;4.180;2023-08-06T00:09:07;8.63;;;3.75;;
20669;SDS011;10494;50.868;4.180;2023-08-06T00:11:33;8.07;;;3.70;;
20669;SDS011;10494;50.868;4.180;2023-08-06T00:13:59;8.70;;;3.58;;
20669;SDS011;10494;50.868;4.180;2023-08-06T00:16:25;13.63;;;4.25;;
20669;SDS011;10494;50.868;4.180;2023-08-06T00:18:50;12.98;;;4.93;;
20669;SDS011;10494;50.868;4.180;2023-08-06T00:21:16;11.13;;;4.35;;
20669;SDS011;10494;50.868;4.180;2023-08-06T00:23:41;8.93;;;5.28;;
20669;SDS011;10494;50.868;4.180;2023-08-06T00:26:07;9.30;;;5.85;;
20669;SDS011;10494;50.868;4.180;2023-08-06T00:28:33;11.77;;;5.90;;
20669;SDS011;10494;50.868;4.180;2023-08-06T00:30:58;13.32;;;5.97;;
20669;SDS011;10494;50.868;4.180;2023-08-06T00:33:24;13.73;;;6.20;;
20669;SDS011;10494;50.868;4.180;2023-08-06T00:35:50;13.98;;;6.60;;
20669;SDS011;10494;50.868;4.180;2023-08-06T00:38:16;13.25;;;7.05;;
20669;SDS011;10494;50.868;4.180;2023-08-06T00:40:42;16.17;;;6.50;;
20669;SDS011;10494;50.868;4.180;2023-08-06T00:43:07;16.25;;;7.80;;
20669;SDS011;10494;50.868;4.180;2023-08-06T00:45:34;15.35;;;8.50;;
20669;SDS011;10494;50.868;4.180;2023-08-06T00:48:01;17.95;;;8.60;;
20669;SDS011;10494;50.868;4.180;2023-08-06T00:50:28;16.42;;;8.00;;
20669;SDS011;10494;50.868;4.180;2023-08-06T00:52:54;14.90;;;8.05;;
20669;SDS011;10494;50.868;4.180;2023-08-06T00:55:20;16.15;;;8.52;;
20669;SDS011;10494;50.868;4.180;2023-08-06T00:57:46;14.05;;;8.38;;
20669;SDS011;10494;50.868;4.180;2023-08-06T01:00:12;19.70;;;8.15;;
20669;SDS011;10494;50.868;4.180;2023-08-06T01:02:38;16.90;;;8.05;;
20669;SDS011;10494;50.868;4.180;2023-08-06T01:05:03;16.13;;;8.13;;
20669;SDS011;10494;50.868;4.180;2023-08-06T01:13:18;21.65;;;8.75;;
20669;SDS011;10494;50.868;4.180;2023-08-06T01:15:56;16.27;;;7.93;;
20669;SDS011;10494;50.868;4.180;2023-08-06T01:18:25;26.75;;;9.15;;
20669;SDS011;10494;50.868;4.180;2023-08-06T01:20:51;20.45;;;8.35;;
20669;SDS011;10494;50.868;4.180;2023-08-06T01:23:16;19.30;;;8.60;;
20669;SDS011;10494;50.868;4.180;2023-08-06T01:28:28;18.45;;;8.10;;
20669;SDS011;10494;50.868;4.180;2023-08-06T01:31:05;13.82;;;7.03;;
20669;SDS011;10494;50.868;4.180;2023-08-06T01:33:35;13.93;;;6.80;;
20669;SDS011;10494;50.868;4.180;2023-08-06T01:36:04;17.13;;;6.63;;
20669;SDS011;10494;50.868;4.180;2023-08-06T01:38:31;18.35;;;6.35;;
20669;SDS011;10494;50.868;4.180;2023-08-06T01:40:57;15.90;;;6.65;;
20669;SDS011;10494;50.868;4.180;2023-08-06T01:43:23;13.35;;;5.80;;
20669;SDS011;10494;50.868;4.180;2023-08-06T01:45:48;13.80;;;5.18;;
20669;SDS011;10494;50.868;4.180;2023-08-06T01:48:14;19.13;;;4.47;;
20669;SDS011;10494;50.868;4.180;2023-08-06T01:50:39;11.23;;;4.35;;
20669;SDS011;10494;50.868;4.180;2023-08-06T01:53:05;14.95;;;4.07;;
20669;SDS011;10494;50.868;4.180;2023-08-06T01:55:31;13.45;;;2.80;;
20669;SDS011;10494;50.868;4.180;2023-08-06T01:57:56;10.75;;;3.20;;
20669;SDS011;10494;50.868;4.180;2023-08-06T02:00:22;10.65;;;2.92;;
20669;SDS011;10494;50.868;4.180;2023-08-06T02:02:48;14.18;;;2.88;;
20669;SDS011;10494;50.868;4.180;2023-08-06T02:05:13;7.00;;;2.10;;
20669;SDS011;10494;50.868;4.180;2023-08-06T02:07:39;11.25;;;2.45;;
20669;SDS011;10494;50.868;4.180;2023-08-06T02:10:05;9.63;;;2.20;;
20669;SDS011;10494;50.868;4.180;2023-08-06T02:12:31;24.27;;;2.55;;
20669;SDS011;10494;50.868;4.180;2023-08-06T02:14:57;9.77;;;2.20;;
20669;SDS011;10494;50.868;4.180;2023-08-06T02:17:22;11.18;;;2.25;;
20669;SDS011;10494;50.868;4.180;2023-08-06T02:19:48;14.60;;;2.40;;
20669;SDS011;10494;50.868;4.180;2023-08-06T02:22:13;10.55;;;2.55;;
20669;SDS011;10494;50.868;4.180;2023-08-06T02:24:39;9.30;;;2.53;;
20669;SDS011;10494;50.868;4.180;2023-08-06T02:27:05;12.18;;;1.98;;
20669;SDS011;10494;50.868;4.180;2023-08-06T02:29:31;15.65;;;2.13;;
20669;SDS011;10494;50.868;4.180;2023-08-06T02:31:56;13.75;;;2.35;;
20669;SDS011;10494;50.868;4.180;2023-08-06T02:34:22;9.00;;;2.25;;
20669;SDS011;10494;50.868;4.180;2023-08-06T02:36:47;9.68;;;2.30;;
20669;SDS011;10494;50.868;4.180;2023-08-06T02:39:13;7.78;;;2.55;;
20669;SDS011;10494;50.868;4.180;2023-08-06T02:41:39;7.53;;;2.60;;
20669;SDS011;10494;50.868;4.180;2023-08-06T02:44:04;8.65;;;2.97;;
20669;SDS011;10494;50.868;4.180;2023-08-06T02:46:30;8.80;;;3.03;;
20669;SDS011;10494;50.868;4.180;2023-08-06T02:48:56;10.98;;;4.30;;
20669;SDS011;10494;50.868;4.180;2023-08-06T02:51:21;13.45;;;5.00;;
20669;SDS011;10494;50.868;4.180;2023-08-06T02:53:47;19.38;;;7.35;;
20669;SDS011;10494;50.868;4.180;2023-08-06T02:56:14;25.08;;;11.00;;
20669;SDS011;10494;50.868;4.180;2023-08-06T02:58:40;29.38;;;13.57;;
20669;SDS011;10494;50.868;4.180;2023-08-06T03:01:06;33.70;;;16.67;;
20669;SDS011;10494;50.868;4.180;2023-08-06T03:03:32;37.47;;;18.98;;
20669;SDS011;10494;50.868;4.180;2023-08-06T03:05:58;35.00;;;19.13;;
20669;SDS011;10494;50.868;4.180;2023-08-06T03:08:24;40.13;;;19.75;;
20669;SDS011;10494;50.868;4.180;2023-08-06T03:10:50;28.50;;;16.63;;
20669;SDS011;10494;50.868;4.180;2023-08-06T03:13:16;30.92;;;17.05;;
20669;SDS011;10494;50.868;4.180;2023-08-06T03:15:43;30.83;;;16.30;;
20669;SDS011;10494;50.868;4.180;2023-08-06T03:18:09;19.10;;;11.55;;
20669;SDS011;10494;50.868;4.180;2023-08-06T03:20:34;10.48;;;7.10;;
20669;SDS011;10494;50.868;4.180;2023-08-06T03:23:00;8.43;;;5.90;;
20669;SDS011;10494;50.868;4.180;2023-08-06T03:25:25;6.63;;;3.65;;
20669;SDS011;10494;50.868;4.180;2023-08-06T03:27:51;7.15;;;3.28;;
20669;SDS011;10494;50.868;4.180;2023-08-06T03:30:17;7.63;;;2.88;;
20669;SDS011;10494;50.868;4.180;2023-08-06T03:32:42;8.15;;;2.83;;
20669;SDS011;10494;50.868;4.180;2023-08-06T03:35:08;6.65;;;2.38;;
20669;SDS011;10494;50.868;4.180;2023-08-06T03:37:34;8.65;;;2.25;;
20669;SDS011;10494;50.868;4.180;2023-08-06T03:39:59;8.38;;;2.50;;
20669;SDS011;10494;50.868;4.180;2023-08-06T03:42:25;4.07;;;2.22;;
20669;SDS011;10494;50.868;4.180;2023-08-06T03:44:50;7.03;;;2.28;;
20669;SDS011;10494;50.868;4.180;2023-08-06T03:47:16;3.90;;;2.40;;
20669;SDS011;10494;50.868;4.180;2023-08-06T03:49:42;6.45;;;1.88;;
20669;SDS011;10494;50.868;4.180;2023-08-06T03:52:08;8.88;;;2.50;;
20669;SDS011;10494;50.868;4.180;2023-08-06T03:54:34;6.00;;;2.75;;
20669;SDS011;10494;50.868;4.180;2023-08-06T03:57:00;3.97;;;2.17;;
20669;SDS011;10494;50.868;4.180;2023-08-06T03:59:25;11.10;;;2.55;;
20669;SDS011;10494;50.868;4.180;2023-08-06T04:01:51;4.80;;;2.45;;
20669;SDS011;10494;50.868;4.180;2023-08-06T04:04:16;7.00;;;2.42;;
20669;SDS011;10494;50.868;4.180;2023-08-06T04:06:42;8.32;;;2.55;;
20669;SDS011;10494;50.868;4.180;2023-08-06T04:09:08;10.05;;;3.10;;
20669;SDS011;10494;50.868;4.180;2023-08-06T04:11:33;7.57;;;3.10;;
20669;SDS011;10494;50.868;4.180;2023-08-06T04:13:59;11.43;;;3.60;;
20669;SDS011;10494;50.868;4.180;2023-08-06T04:16:24;6.13;;;3.17;;
20669;SDS011;10494;50.868;4.180;2023-08-06T04:18:51;7.88;;;3.40;;
20669;SDS011;10494;50.868;4.180;2023-08-06T04:21:18;5.80;;;3.15;;
20669;SDS011;10494;50.868;4.180;2023-08-06T04:23:44;6.95;;;3.80;;
20669;SDS011;10494;50.868;4.180;2023-08-06T04:26:10;8.15;;;3.72;;
20669;SDS011;10494;50.868;4.180;2023-08-06T04:28:35;11.63;;;4.88;;
20669;SDS011;10494;50.868;4.180;2023-08-06T04:31:01;13.15;;;5.68;;
20669;SDS011;10494;50.868;4.180;2023-08-06T04:33:27;9.27;;;5.55;;
20669;SDS011;10494;50.868;4.180;2023-08-06T04:35:55;11.70;;;5.70;;
20669;SDS011;10494;50.868;4.180;2023-08-06T04:38:23;10.80;;;5.47;;
20669;SDS011;10494;50.868;4.180;2023-08-06T04:40:50;10.20;;;5.25;;
20669;SDS011;10494;50.868;4.180;2023-08-06T04:43:15;7.00;;;4.70;;
20669;SDS011;10494;50.868;4.180;2023-08-06T04:45:48;12.35;;;6.15;;
20669;SDS011;10494;50.868;4.180;2023-08-06T04:48:15;13.52;;;5.57;;
20669;SDS011;10494;50.868;4.180;2023-08-06T04:50:47;9.18;;;4.57;;
20669;SDS011;10494;50.868;4.180;2023-08-06T04:53:14;10.52;;;4.80;;
20669;SDS011;10494;50.868;4.180;2023-08-06T04:55:40;9.25;;;5.30;;
20669;SDS011;10494;50.868;4.180;2023-08-06T04:58:06;14.93;;;5.45;;
20669;SDS011;10494;50.868;4.180;2023-08-06T05:00:32;11.20;;;5.45;;
20669;SDS011;10494;50.868;4.180;2023-08-06T05:03:01;13.93;;;5.32;;
20669;SDS011;10494;50.868;4.180;2023-08-06T05:05:27;14.10;;;6.07;;
20669;SDS011;10494;50.868;4.180;2023-08-06T05:07:54;15.25;;;5.60;;
20669;SDS011;10494;50.868;4.180;2023-08-06T05:10:21;15.77;;;6.30;;
20669;SDS011;10494;50.868;4.180;2023-08-06T05:12:46;22.92;;;6.43;;
20669;SDS011;10494;50.868;4.180;2023-08-06T05:15:12;21.75;;;7.03;;
20669;SDS011;10494;50.868;4.180;2023-08-06T05:17:38;17.02;;;5.93;;
20669;SDS011;10494;50.868;4.180;2023-08-06T05:20:03;22.02;;;6.88;;
20669;SDS011;10494;50.868;4.180;2023-08-06T05:22:29;13.23;;;5.10;;
20669;SDS011;10494;50.868;4.180;2023-08-06T05:24:55;18.80;;;7.30;;
20669;SDS011;10494;50.868;4.180;2023-08-06T05:27:21;17.15;;;5.30;;
20669;SDS011;10494;50.868;4.180;2023-08-06T05:29:47;14.70;;;4.70;;
20669;SDS011;10494;50.868;4.180;2023-08-06T05:32:13;19.10;;;4.65;;
20669;SDS011;10494;50.868;4.180;2023-08-06T05:34:39;14.20;;;5.00;;
20669;SDS011;10494;50.868;4.180;2023-08-06T05:37:06;17.65;;;4.63;;
20669;SDS011;10494;50.868;4.180;2023-08-06T05:39:32;14.20;;;4.60;;
20669;SDS011;10494;50.868;4.180;2023-08-06T05:41:57;10.75;;;4.40;;
20669;SDS011;10494;50.868;4.180;2023-08-06T05:44:23;12.70;;;4.93;;
20669;SDS011;10494;50.868;4.180;2023-08-06T05:46:49;12.13;;;4.47;;
20669;SDS011;10494;50.868;4.180;2023-08-06T05:49:18;18.45;;;5.13;;
20669;SDS011;10494;50.868;4.180;2023-08-06T05:51:44;13.40;;;4.65;;
20669;SDS011;10494;50.868;4.180;2023-08-06T05:54:09;21.17;;;4.03;;
20669;SDS011;10494;50.868;4.180;2023-08-06T05:56:36;17.70;;;6.07;;
20669;SDS011;10494;50.868;4.180;2023-08-06T05:59:02;18.70;;;4.80;;
20669;SDS011;10494;50.868;4.180;2023-08-06T06:01:28;14.35;;;4.30;;
20669;SDS011;10494;50.868;4.180;2023-08-06T06:03:53;13.88;;;4.57;;
20669;SDS011;10494;50.868;4.180;2023-08-06T06:06:19;18.70;;;5.65;;
20669;SDS011;10494;50.868;4.180;2023-08-06T06:08:45;13.57;;;4.68;;
20669;SDS011;10494;50.868;4.180;2023-08-06T06:11:11;18.27;;;4.82;;
20669;SDS011;10494;50.868;4.180;2023-08-06T06:13:36;15.15;;;4.65;;
20669;SDS011;10494;50.868;4.180;2023-08-06T06:16:02;16.42;;;4.70;;
20669;SDS011;10494;50.868;4.180;2023-08-06T06:18:27;12.75;;;4.43;;
20669;SDS011;10494;50.868;4.180;2023-08-06T06:20:53;15.88;;;4.78;;
20669;SDS011;10494;50.868;4.180;2023-08-06T06:23:19;16.33;;;5.35;;
20669;SDS011;10494;50.868;4.180;2023-08-06T06:25:48;14.10;;;4.88;;
20669;SDS011;10494;50.868;4.180;2023-08-06T06:28:16;11.73;;;4.63;;
20669;SDS011;10494;50.868;4.180;2023-08-06T06:30:42;13.63;;;4.97;;
20669;SDS011;10494;50.868;4.180;2023-08-06T06:33:08;13.13;;;4.60;;
20669;SDS011;10494;50.868;4.180;2023-08-06T06:35:33;19.52;;;5.05;;
20669;SDS011;10494;50.868;4.180;2023-08-06T06:37:59;13.48;;;4.53;;
20669;SDS011;10494;50.868;4.180;2023-08-06T06:40:25;20.40;;;5.38;;
20669;SDS011;10494;50.868;4.180;2023-08-06T06:42:51;9.98;;;3.85;;
20669;SDS011;10494;50.868;4.180;2023-08-06T06:45:17;14.80;;;3.92;;
20669;SDS011;10494;50.868;4.180;2023-08-06T06:47:43;11.73;;;3.60;;
20669;SDS011;10494;50.868;4.180;2023-08-06T06:50:08;8.80;;;3.08;;
20669;SDS011;10494;50.868;4.180;2023-08-06T06:52:34;12.85;;;3.42;;
20669;SDS011;10494;50.868;4.180;2023-08-06T06:55:00;13.43;;;2.97;;
20669;SDS011;10494;50.868;4.180;2023-08-06T06:57:26;14.15;;;3.42;;
20669;SDS011;10494;50.868;4.180;2023-08-06T06:59:51;9.57;;;3.17;;
20669;SDS011;10494;50.868;4.180;2023-08-06T07:02:17;7.65;;;2.85;;
20669;SDS011;10494;50.868;4.180;2023-08-06T07:04:43;20.17;;;3.13;;
20669;SDS011;10494;50.868;4.180;2023-08-06T07:07:08;9.18;;;2.83;;
20669;SDS011;10494;50.868;4.180;2023-08-06T07:09:35;13.15;;;3.00;;
20669;SDS011;10494;50.868;4.180;2023-08-06T07:12:01;11.68;;;2.83;;
20669;SDS011;10494;50.868;4.180;2023-08-06T07:14:27;18.08;;;2.42;;
20669;SDS011;10494;50.868;4.180;2023-08-06T07:16:54;13.63;;;2.72;;
20669;SDS011;10494;50.868;4.180;2023-08-06T07:19:20;9.18;;;1.77;;
20669;SDS011;10494;50.868;4.180;2023-08-06T07:21:45;11.70;;;1.83;;
20669;SDS011;10494;50.868;4.180;2023-08-06T07:24:11;11.90;;;1.85;;
20669;SDS011;10494;50.868;4.180;2023-08-06T07:26:37;10.35;;;1.90;;
20669;SDS011;10494;50.868;4.180;2023-08-06T07:29:03;12.27;;;2.10;;
20669;SDS011;10494;50.868;4.180;2023-08-06T07:31:28;14.90;;;2.22;;
20669;SDS011;10494;50.868;4.180;2023-08-06T07:33:54;10.20;;;1.90;;
20669;SDS011;10494;50.868;4.180;2023-08-06T07:36:20;12.10;;;2.15;;
20669;SDS011;10494;50.868;4.180;2023-08-06T07:38:46;11.70;;;2.67;;
20669;SDS011;10494;50.868;4.180;2023-08-06T07:41:13;14.77;;;2.97;;
20669;SDS011;10494;50.868;4.180;2023-08-06T07:43:39;12.05;;;1.73;;
20669;SDS011;10494;50.868;4.180;2023-08-06T07:46:05;21.42;;;3.50;;
20669;SDS011;10494;50.868;4.180;2023-08-06T07:48:30;14.75;;;3.30;;
20669;SDS011;10494;50.868;4.180;2023-08-06T07:50:56;12.38;;;1.60;;
20669;SDS011;10494;50.868;4.180;2023-08-06T07:53:22;11.00;;;2.33;;
20669;SDS011;10494;50.868;4.180;2023-08-06T07:55:52;10.98;;;2.63;;
20669;SDS011;10494;50.868;4.180;2023-08-06T07:58:18;13.95;;;2.75;;
20669;SDS011;10494;50.868;4.180;2023-08-06T08:00:45;11.07;;;2.30;;
20669;SDS011;10494;50.868;4.180;2023-08-06T08:03:14;9.23;;;2.13;;
20669;SDS011;10494;50.868;4.180;2023-08-06T08:05:40;12.52;;;2.22;;
20669;SDS011;10494;50.868;4.180;2023-08-06T08:08:06;11.05;;;2.35;;
20669;SDS011;10494;50.868;4.180;2023-08-06T08:10:32;12.10;;;2.10;;
20669;SDS011;10494;50.868;4.180;2023-08-06T08:12:59;13.80;;;2.25;;
20669;SDS011;10494;50.868;4.180;2023-08-06T08:15:29;10.60;;;2.25;;
20669;SDS011;10494;50.868;4.180;2023-08-06T08:17:56;11.50;;;2.10;;
20669;SDS011;10494;50.868;4.180;2023-08-06T08:20:21;11.45;;;2.08;;
20669;SDS011;10494;50.868;4.180;2023-08-06T08:22:47;16.60;;;2.38;;
20669;SDS011;10494;50.868;4.180;2023-08-06T08:25:13;11.57;;;2.42;;
20669;SDS011;10494;50.868;4.180;2023-08-06T08:27:40;9.00;;;1.90;;
20669;SDS011;10494;50.868;4.180;2023-08-06T08:30:06;7.20;;;2.13;;
20669;SDS011;10494;50.868;4.180;2023-08-06T08:32:32;14.40;;;2.22;;
20669;SDS011;10494;50.868;4.180;2023-08-06T08:34:58;11.52;;;2.13;;
20669;SDS011;10494;50.868;4.180;2023-08-06T08:37:23;13.18;;;2.63;;
20669;SDS011;10494;50.868;4.180;2023-08-06T08:39:49;10.40;;;2.58;;
20669;SDS011;10494;50.868;4.180;2023-08-06T08:42:15;7.60;;;2.28;;
20669;SDS011;10494;50.868;4.180;2023-08-06T08:44:44;12.13;;;2.17;;
20669;SDS011;10494;50.868;4.180;2023-08-06T08:47:10;14.20;;;1.98;;
20669;SDS011;10494;50.868;4.180;2023-08-06T08:49:39;9.20;;;2.30;;
20669;SDS011;10494;50.868;4.180;2023-08-06T08:52:06;10.73;;;2.33;;
20669;SDS011;10494;50.868;4.180;2023-08-06T08:54:35;10.43;;;2.45;;
20669;SDS011;10494;50.868;4.180;2023-08-06T08:57:04;10.00;;;2.15;;
20669;SDS011;10494;50.868;4.180;2023-08-06T08:59:30;16.40;;;2.65;;
20669;SDS011;10494;50.868;4.180;2023-08-06T09:01:57;11.88;;;2.00;;
20669;SDS011;10494;50.868;4.180;2023-08-06T09:04:25;9.85;;;2.25;;
20669;SDS011;10494;50.868;4.180;2023-08-06T09:06:53;12.18;;;2.30;;
20669;SDS011;10494;50.868;4.180;2023-08-06T09:09:31;10.70;;;2.65;;
20669;SDS011;10494;50.868;4.180;2023-08-06T09:12:03;13.13;;;2.40;;
20669;SDS011;10494;50.868;4.180;2023-08-06T09:14:36;10.63;;;2.53;;
20669;SDS011;10494;50.868;4.180;2023-08-06T09:17:02;12.68;;;2.38;;
20669;SDS011;10494;50.868;4.180;2023-08-06T09:19:29;13.63;;;2.70;;
20669;SDS011;10494;50.868;4.180;2023-08-06T09:21:55;11.30;;;2.72;;
20669;SDS011;10494;50.868;4.180;2023-08-06T09:24:22;19.80;;;2.50;;
20669;SDS011;10494;50.868;4.180;2023-08-06T09:26:47;14.27;;;3.00;;
20669;SDS011;10494;50.868;4.180;2023-08-06T09:29:13;11.27;;;2.55;;
20669;SDS011;10494;50.868;4.180;2023-08-06T09:31:43;11.90;;;3.03;;
20669;SDS011;10494;50.868;4.180;2023-08-06T09:36:42;9.88;;;2.53;;
20669;SDS011;10494;50.868;4.180;2023-08-06T09:39:15;6.70;;;2.28;;
20669;SDS011;10494;50.868;4.180;2023-08-06T09:41:42;13.77;;;2.65;;
20669;SDS011;10494;50.868;4.180;2023-08-06T09:44:14;10.77;;;2.53;;
20669;SDS011;10494;50.868;4.180;2023-08-06T09:46:51;9.52;;;2.60;;
20669;SDS011;10494;50.868;4.180;2023-08-06T09:49:19;16.88;;;2.83;;
20669;SDS011;10494;50.868;4.180;2023-08-06T09:51:46;19.13;;;3.13;;
20669;SDS011;10494;50.868;4.180;2023-08-06T09:54:16;11.45;;;2.60;;
20669;SDS011;10494;50.868;4.180;2023-08-06T09:56:42;8.90;;;2.13;;
20669;SDS011;10494;50.868;4.180;2023-08-06T09:59:08;11.98;;;3.08;;
20669;SDS011;10494;50.868;4.180;2023-08-06T10:01:36;11.95;;;3.08;;
20669;SDS011;10494;50.868;4.180;2023-08-06T10:04:03;8.35;;;2.10;;
20669;SDS011;10494;50.868;4.180;2023-08-06T10:06:29;16.15;;;3.05;;
20669;SDS011;10494;50.868;4.180;2023-08-06T10:08:58;7.15;;;1.80;;
20669;SDS011;10494;50.868;4.180;2023-08-06T10:11:24;5.70;;;1.92;;
20669;SDS011;10494;50.868;4.180;2023-08-06T10:13:55;13.52;;;3.13;;
20669;SDS011;10494;50.868;4.180;2023-08-06T10:16:25;12.55;;;2.45;;
20669;SDS011;10494;50.868;4.180;2023-08-06T10:18:52;9.57;;;2.35;;
20669;SDS011;10494;50.868;4.180;2023-08-06T10:21:19;12.75;;;2.38;;
20669;SDS011;10494;50.868;4.180;2023-08-06T10:23:49;10.82;;;2.03;;
20669;SDS011;10494;50.868;4.180;2023-08-06T10:26:19;7.78;;;1.88;;
20669;SDS011;10494;50.868;4.180;2023-08-06T10:28:45;9.23;;;2.20;;
20669;SDS011;10494;50.868;4.180;2023-08-06T10:31:11;6.88;;;1.80;;
20669;SDS011;10494;50.868;4.180;2023-08-06T10:33:40;11.15;;;2.55;;
20669;SDS011;10494;50.868;4.180;2023-08-06T10:36:08;9.25;;;2.75;;
20669;SDS011;10494;50.868;4.180;2023-08-06T10:38:43;6.70;;;2.28;;
20669;SDS011;10494;50.868;4.180;2023-08-06T10:41:44;7.25;;;2.33;;
20669;SDS011;10494;50.868;4.180;2023-08-06T10:44:06;6.85;;;2.50;;
20669;SDS011;10494;50.868;4.180;2023-08-06T10:46:33;10.98;;;2.50;;
20669;SDS011;10494;50.868;4.180;2023-08-06T10:48:59;10.52;;;2.38;;
20669;SDS011;10494;50.868;4.180;2023-08-06T10:51:24;9.70;;;2.67;;
20669;SDS011;10494;50.868;4.180;2023-08-06T10:53:50;8.65;;;2.35;;
20669;SDS011;10494;50.868;4.180;2023-08-06T10:56:17;11.20;;;2.58;;
20669;SDS011;10494;50.868;4.180;2023-08-06T10:58:47;12.65;;;3.05;;
20669;SDS011;10494;50.868;4.180;2023-08-06T11:01:14;9.73;;;2.30;;
20669;SDS011;10494;50.868;4.180;2023-08-06T11:03:41;11.07;;;2.42;;
20669;SDS011;10494;50.868;4.180;2023-08-06T11:06:08;7.90;;;2.10;;
20669;SDS011;10494;50.868;4.180;2023-08-06T11:08:35;6.35;;;1.80;;
20669;SDS011;10494;50.868;4.180;2023-08-06T11:11:09;8.75;;;2.30;;
20669;SDS011;10494;50.868;4.180;2023-08-06T11:13:37;5.65;;;1.85;;
20669;SDS011;10494;50.868;4.180;2023-08-06T11:16:11;8.43;;;2.33;;
20669;SDS011;10494;50.868;4.180;2023-08-06T11:18:42;8.38;;;1.90;;
20669;SDS011;10494;50.868;4.180;2023-08-06T11:21:08;6.90;;;2.13;;
20669;SDS011;10494;50.868;4.180;2023-08-06T11:23:34;11.70;;;2.00;;
20669;SDS011;10494;50.868;4.180;2023-08-06T11:26:01;12.10;;;3.53;;
20669;SDS011;10494;50.868;4.180;2023-08-06T11:28:26;10.30;;;1.95;;
20669;SDS011;10494;50.868;4.180;2023-08-06T11:30:52;7.13;;;1.83;;
20669;SDS011;10494;50.868;4.180;2023-08-06T11:33:21;8.63;;;1.95;;
20669;SDS011;10494;50.868;4.180;2023-08-06T11:35:50;10.63;;;2.08;;
20669;SDS011;10494;50.868;4.180;2023-08-06T11:38:17;7.70;;;2.20;;
20669;SDS011;10494;50.868;4.180;2023-08-06T11:40:46;13.23;;;1.98;;
20669;SDS011;10494;50.868;4.180;2023-08-06T11:43:13;8.80;;;2.40;;
20669;SDS011;10494;50.868;4.180;2023-08-06T11:45:39;6.85;;;1.90;;
20669;SDS011;10494;50.868;4.180;2023-08-06T11:48:05;9.70;;;2.58;;
20669;SDS011;10494;50.868;4.180;2023-08-06T11:50:36;9.25;;;2.15;;
20669;SDS011;10494;50.868;4.180;2023-08-06T11:53:05;6.70;;;2.42;;
20669;SDS011;10494;50.868;4.180;2023-08-06T11:55:31;6.95;;;2.45;;
20669;SDS011;10494;50.868;4.180;2023-08-06T11:57:57;14.32;;;2.33;;
20669;SDS011;10494;50.868;4.180;2023-08-06T12:00:26;6.18;;;1.77;;
20669;SDS011;10494;50.868;4.180;2023-08-06T12:02:52;5.03;;;2.15;;
20669;SDS011;10494;50.868;4.180;2023-08-06T12:05:19;8.65;;;2.22;;
20669;SDS011;10494;50.868;4.180;2023-08-06T12:07:46;5.15;;;2.13;;
20669;SDS011;10494;50.868;4.180;2023-08-06T12:10:13;7.80;;;2.42;;
20669;SDS011;10494;50.868;4.180;2023-08-06T12:12:40;8.13;;;1.88;;
20669;SDS011;10494;50.868;4.180;2023-08-06T12:15:06;9.57;;;2.78;;
20669;SDS011;10494;50.868;4.180;2023-08-06T12:17:33;12.32;;;2.75;;
20669;SDS011;10494;50.868;4.180;2023-08-06T12:19:59;13.35;;;2.75;;
20669;SDS011;10494;50.868;4.180;2023-08-06T12:22:25;14.18;;;3.17;;
20669;SDS011;10494;50.868;4.180;2023-08-06T12:24:50;13.45;;;2.47;;
20669;SDS011;10494;50.868;4.180;2023-08-06T12:27:16;14.65;;;2.28;;
20669;SDS011;10494;50.868;4.180;2023-08-06T12:29:45;11.30;;;2.28;;
20669;SDS011;10494;50.868;4.180;2023-08-06T12:32:13;9.95;;;2.70;;
20669;SDS011;10494;50.868;4.180;2023-08-06T12:34:39;11.93;;;2.40;;
20669;SDS011;10494;50.868;4.180;2023-08-06T12:37:06;8.40;;;1.80;;
20669;SDS011;10494;50.868;4.180;2023-08-06T12:39:33;9.07;;;2.13;;
20669;SDS011;10494;50.868;4.180;2023-08-06T12:42:00;11.32;;;2.15;;
20669;SDS011;10494;50.868;4.180;2023-08-06T12:44:26;9.68;;;2.28;;
20669;SDS011;10494;50.868;4.180;2023-08-06T12:46:52;16.20;;;3.70;;
20669;SDS011;10494;50.868;4.180;2023-08-06T12:49:19;9.95;;;2.15;;
20669;SDS011;10494;50.868;4.180;2023-08-06T12:51:46;14.30;;;2.65;;
20669;SDS011;10494;50.868;4.180;2023-08-06T12:54:12;14.35;;;2.42;;
20669;SDS011;10494;50.868;4.180;2023-08-06T12:56:38;12.07;;;2.97;;
20669;SDS011;10494;50.868;4.180;2023-08-06T12:59:03;8.77;;;3.55;;
20669;SDS011;10494;50.868;4.180;2023-08-06T13:01:29;12.50;;;4.38;;
20669;SDS011;10494;50.868;4.180;2023-08-06T13:03:54;11.18;;;3.85;;
20669;SDS011;10494;50.868;4.180;2023-08-06T13:06:20;9.88;;;2.70;;
20669;SDS011;10494;50.868;4.180;2023-08-06T13:08:46;10.68;;;3.10;;
20669;SDS011;10494;50.868;4.180;2023-08-06T13:11:11;24.20;;;8.48;;
20669;SDS011;10494;50.868;4.180;2023-08-06T13:13:37;9.75;;;4.13;;
20669;SDS011;10494;50.868;4.180;2023-08-06T13:16:03;11.73;;;3.65;;
20669;SDS011;10494;50.868;4.180;2023-08-06T13:18:29;10.77;;;2.85;;
20669;SDS011;10494;50.868;4.180;2023-08-06T13:20:54;9.02;;;2.40;;
20669;SDS011;10494;50.868;4.180;2023-08-06T13:23:20;9.02;;;2.53;;
20669;SDS011;10494;50.868;4.180;2023-08-06T13:25:46;14.10;;;5.55;;
20669;SDS011;10494;50.868;4.180;2023-08-06T13:28:11;14.93;;;4.70;;
20669;SDS011;10494;50.868;4.180;2023-08-06T13:30:39;14.02;;;4.43;;
20669;SDS011;10494;50.868;4.180;2023-08-06T13:33:10;15.02;;;3.13;;
20669;SDS011;10494;50.868;4.180;2023-08-06T13:35:36;10.30;;;3.03;;
20669;SDS011;10494;50.868;4.180;2023-08-06T13:38:02;12.27;;;2.75;;
20669;SDS011;10494;50.868;4.180;2023-08-06T13:40:28;7.63;;;2.22;;
20669;SDS011;10494;50.868;4.180;2023-08-06T13:42:55;9.25;;;1.98;;
20669;SDS011;10494;50.868;4.180;2023-08-06T13:45:21;10.68;;;1.98;;
20669;SDS011;10494;50.868;4.180;2023-08-06T13:47:46;11.00;;;2.17;;
20669;SDS011;10494;50.868;4.180;2023-08-06T13:50:12;11.32;;;1.60;;
20669;SDS011;10494;50.868;4.180;2023-08-06T13:52:38;11.15;;;1.95;;
20669;SDS011;10494;50.868;4.180;2023-08-06T13:55:04;12.23;;;2.05;;
20669;SDS011;10494;50.868;4.180;2023-08-06T13:57:31;7.68;;;1.70;;
20669;SDS011;10494;50.868;4.180;2023-08-06T13:59:56;10.98;;;3.00;;
20669;SDS011;10494;50.868;4.180;2023-08-06T14:02:22;7.03;;;2.10;;
20669;SDS011;10494;50.868;4.180;2023-08-06T14:04:48;9.38;;;1.98;;
20669;SDS011;10494;50.868;4.180;2023-08-06T14:07:14;12.02;;;2.30;;
20669;SDS011;10494;50.868;4.180;2023-08-06T14:09:40;8.90;;;2.72;;
20669;SDS011;10494;50.868;4.180;2023-08-06T14:12:07;10.27;;;2.13;;
20669;SDS011;10494;50.868;4.180;2023-08-06T14:14:33;4.55;;;1.67;;
20669;SDS011;10494;50.868;4.180;2023-08-06T14:16:58;11.70;;;2.22;;
20669;SDS011;10494;50.868;4.180;2023-08-06T14:19:24;6.82;;;1.73;;
20669;SDS011;10494;50.868;4.180;2023-08-06T14:21:50;9.48;;;2.17;;
20669;SDS011;10494;50.868;4.180;2023-08-06T14:24:15;6.93;;;2.13;;
20669;SDS011;10494;50.868;4.180;2023-08-06T14:26:41;14.90;;;2.90;;
20669;SDS011;10494;50.868;4.180;2023-08-06T14:29:07;12.15;;;2.33;;
20669;SDS011;10494;50.868;4.180;2023-08-06T14:31:32;11.93;;;2.45;;
20669;SDS011;10494;50.868;4.180;2023-08-06T14:33:58;6.40;;;1.60;;
20669;SDS011;10494;50.868;4.180;2023-08-06T14:36:25;12.10;;;2.65;;
20669;SDS011;10494;50.868;4.180;2023-08-06T14:38:51;13.60;;;3.42;;
20669;SDS011;10494;50.868;4.180;2023-08-06T14:41:17;8.68;;;2.22;;
20669;SDS011;10494;50.868;4.180;2023-08-06T14:43:42;12.73;;;2.60;;
20669;SDS011;10494;50.868;4.180;2023-08-06T14:46:08;14.60;;;3.03;;